sensor_id;sensor_type;location;lat;lon;timestamp;pressure;altitude;pressure_sealevel;temperature;humidity
13314;BME280;6725;48.112;11.604;2023-02-22T00:00:25;95219.03;;;5.12;100.00
13314;BME280;6725;48.112;11.604;2023-02-22T00:03:05;95214.34;;;5.09;100.00
13314;BME280;6725;48.112;11.604;2023-02-22T00:05:32;95212.81;;;5.08;100.00
13314;BME280;6725;48.112;11.604;2023-02-22T00:07:58;95212.81;;;5.08;100.00
13314;BME280;6725;48.112;11.604;2023-02-22T00:10:25;95207.00;;;5.06;100.00
13314;BME280;6725;48.112;11.604;2023-02-22T00:12:52;95205.78;;;5.00;100.00
13314;BME280;6725;48.112;11.604;2023-02-22T00:15:22;95193.72;;;4.94;100.00
13314;BME280;6725;48.112;11.604;2023-02-22T00:17:51;95202.22;;;4.92;100.00
13314;BME280;6725;48.112;11.604;2023-02-22T00:20:17;95203.38;;;4.91;100.00
13314;BME280;6725;48.112;11.604;2023-02-22T00:22:44;95192.91;;;4.90;100.00
13314;BME280;6725;48.112;11.604;2023-02-22T00:25:17;95193.28;;;4.85;100.00
13314;BME280;6725;48.112;11.604;2023-02-22T00:27:44;95203.28;;;4.84;100.00
13314;BME280;6725;48.112;11.604;2023-02-22T00:30:20;95202.38;;;4.70;100.00
13314;BME280;6725;48.112;11.604;2023-02-22T00:32:47;95204.94;;;4.59;100.00
13314;BME280;6725;48.112;11.604;2023-02-22T00:35:14;95207.22;;;4.54;100.00
13314;BME280;6725;48.112;11.604;2023-02-22T00:37:39;95205.66;;;4.53;100.00
13314;BME280;6725;48.112;11.604;2023-02-22T00:40:10;95198.63;;;4.45;100.00
13314;BME280;6725;48.112;11.604;2023-02-22T00:42:36;95203.97;;;4.41;100.00
13314;BME280;6725;48.112;11.604;2023-02-22T00:45:03;95193.94;;;4.42;100.00
13314;BME280;6725;48.112;11.604;2023-02-22T00:47:29;95191.25;;;4.42;100.00
13314;BME280;6725;48.112;11.604;2023-02-22T00:49:54;95188.53;;;4.42;100.00
13314;BME280;6725;48.112;11.604;2023-02-22T00:52:20;95191.22;;;4.38;100.00
13314;BME280;6725;48.112;11.604;2023-02-22T00:54:45;95190.00;;;4.36;100.00
13314;BME280;6725;48.112;11.604;2023-02-22T00:57:11;95177.34;;;4.40;100.00
13314;BME280;6725;48.112;11.604;2023-02-22T00:59:36;95180.78;;;4.37;100.00
13314;BME280;6725;48.112;11.604;2023-02-22T01:02:02;95187.72;;;4.38;100.00
13314;BME280;6725;48.112;11.604;2023-02-22T01:04:27;95175.38;;;4.40;100.00
13314;BME280;6725;48.112;11.604;2023-02-22T01:06:53;95163.81;;;4.40;100.00
13314;BME280;6725;48.112;11.604;2023-02-22T01:09:19;95182.28;;;4.34;100.00
13314;BME280;6725;48.112;11.604;2023-02-22T01:11:44;95176.00;;;4.27;100.00
13314;BME280;6725;48.112;11.604;2023-02-22T01:14:09;95175.28;;;4.30;100.00
13314;BME280;6725;48.112;11.604;2023-02-22T01:16:35;95169.44;;;4.28;100.00
13314;BME280;6725;48.112;11.604;2023-02-22T01:19:01;95169.06;;;4.26;100.00
13314;BME280;6725;48.112;11.604;2023-02-22T01:21:26;95169.78;;;4.23;100.00
13314;BME280;6725;48.112;11.604;2023-02-22T01:23:52;95167.41;;;4.18;100.00
13314;BME280;6725;48.112;11.604;2023-02-22T01:26:19;95161.88;;;4.07;100.00
13314;BME280;6725;48.112;11.604;2023-02-22T01:28:44;95164.19;;;4.05;100.00
13314;BME280;6725;48.112;11.604;2023-02-22T01:31:10;95160.09;;;3.89;100.00
13314;BME280;6725;48.112;11.604;2023-02-22T01:33:36;95156.78;;;3.73;100.00
13314;BME280;6725;48.112;11.604;2023-02-22T01:36:03;95152.28;;;3.80;100.00
13314;BME280;6725;48.112;11.604;2023-02-22T01:38:29;95153.72;;;3.74;100.00
13314;BME280;6725;48.112;11.604;2023-02-22T01:40:54;95155.22;;;3.72;100.00
13314;BME280;6725;48.112;11.604;2023-02-22T01:43:22;95152.09;;;3.70;100.00
13314;BME280;6725;48.112;11.604;2023-02-22T01:46:01;95147.41;;;3.63;100.00
13314;BME280;6725;48.112;11.604;2023-02-22T01:51:19;95140.81;;;3.61;100.00
13314;BME280;6725;48.112;11.604;2023-02-22T01:53:52;95138.91;;;3.61;100.00
13314;BME280;6725;48.112;11.604;2023-02-22T01:56:21;95138.91;;;3.61;100.00
13314;BME280;6725;48.112;11.604;2023-02-22T01:58:54;95139.09;;;3.49;100.00
13314;BME280;6725;48.112;11.604;2023-02-22T02:01:23;95137.81;;;3.39;100.00
13314;BME280;6725;48.112;11.604;2023-02-22T02:03:49;95142.50;;;3.46;100.00
13314;BME280;6725;48.112;11.604;2023-02-22T02:06:17;95133.22;;;3.43;100.00
13314;BME280;6725;48.112;11.604;2023-02-22T02:11:59;95120.16;;;3.45;100.00
13314;BME280;6725;48.112;11.604;2023-02-22T02:14:27;95118.69;;;3.51;100.00
13314;BME280;6725;48.112;11.604;2023-02-22T02:16:56;95117.13;;;3.50;100.00
13314;BME280;6725;48.112;11.604;2023-02-22T02:22:27;95109.38;;;3.45;100.00
13314;BME280;6725;48.112;11.604;2023-02-22T02:33:50;95099.31;;;3.42;100.00
13314;BME280;6725;48.112;11.604;2023-02-22T02:36:43;95088.53;;;3.46;100.00
13314;BME280;6725;48.112;11.604;2023-02-22T02:41:46;95079.34;;;3.50;100.00
13314;BME280;6725;48.112;11.604;2023-02-22T02:44:16;95085.53;;;3.51;100.00
13314;BME280;6725;48.112;11.604;2023-02-22T02:47:31;95082.47;;;3.53;100.00
13314;BME280;6725;48.112;11.604;2023-02-22T02:50:07;95077.03;;;3.49;100.00
13314;BME280;6725;48.112;11.604;2023-02-22T02:52:34;95086.28;;;3.48;100.00
13314;BME280;6725;48.112;11.604;2023-02-22T02:55:03;95077.00;;;3.45;100.00
13314;BME280;6725;48.112;11.604;2023-02-22T02:57:30;95080.00;;;3.40;100.00
13314;BME280;6725;48.112;11.604;2023-02-22T02:59:56;95076.91;;;3.38;100.00
13314;BME280;6725;48.112;11.604;2023-02-22T03:16:11;95049.31;;;3.22;100.00
13314;BME280;6725;48.112;11.604;2023-02-22T03:27:30;95044.22;;;3.17;100.00
13314;BME280;6725;48.112;11.604;2023-02-22T03:30:02;95049.72;;;3.24;100.00
13314;BME280;6725;48.112;11.604;2023-02-22T03:32:34;95050.53;;;3.28;100.00
13314;BME280;6725;48.112;11.604;2023-02-22T03:35:07;95052.09;;;3.29;100.00
13314;BME280;6725;48.112;11.604;2023-02-22T03:37:37;95048.28;;;3.30;100.00
13314;BME280;6725;48.112;11.604;2023-02-22T03:40:06;95054.47;;;3.34;100.00
13314;BME280;6725;48.112;11.604;2023-02-22T03:42:40;95065.66;;;3.36;100.00
13314;BME280;6725;48.112;11.604;2023-02-22T03:45:08;95067.25;;;3.37;100.00
13314;BME280;6725;48.112;11.604;2023-02-22T03:47:41;95068.38;;;3.36;100.00
13314;BME280;6725;48.112;11.604;2023-02-22T03:50:17;95075.38;;;3.41;100.00
13314;BME280;6725;48.112;11.604;2023-02-22T03:52:45;95080.41;;;3.42;100.00
13314;BME280;6725;48.112;11.604;2023-02-22T03:55:12;95082.75;;;3.44;100.00
13314;BME280;6725;48.112;11.604;2023-02-22T03:57:44;95081.59;;;3.45;100.00
13314;BME280;6725;48.112;11.604;2023-02-22T04:00:13;95088.16;;;3.44;100.00
13314;BME280;6725;48.112;11.604;2023-02-22T04:02:40;95084.25;;;3.41;100.00
13314;BME280;6725;48.112;11.604;2023-02-22T04:05:06;95083.44;;;3.37;100.00
13314;BME280;6725;48.112;11.604;2023-02-22T04:07:32;95092.66;;;3.36;100.00
13314;BME280;6725;48.112;11.604;2023-02-22T04:09:57;95085.34;;;3.37;100.00
13314;BME280;6725;48.112;11.604;2023-02-22T04:12:22;95080.69;;;3.34;100.00
13314;BME280;6725;48.112;11.604;2023-02-22T04:14:48;95080.22;;;3.28;100.00
13314;BME280;6725;48.112;11.604;2023-02-22T04:17:13;95082.09;;;3.24;100.00
13314;BME280;6725;48.112;11.604;2023-02-22T04:19:39;95075.06;;;3.20;100.00
13314;BME280;6725;48.112;11.604;2023-02-22T04:22:04;95070.38;;;3.13;100.00
13314;BME280;6725;48.112;11.604;2023-02-22T04:24:30;95063.31;;;3.05;100.00
13314;BME280;6725;48.112;11.604;2023-02-22T04:26:55;95061.03;;;3.07;100.00
13314;BME280;6725;48.112;11.604;2023-02-22T04:29:20;95059.13;;;3.08;100.00
13314;BME280;6725;48.112;11.604;2023-02-22T04:31:46;95055.25;;;3.09;100.00
13314;BME280;6725;48.112;11.604;2023-02-22T04:34:11;95054.44;;;3.05;100.00
13314;BME280;6725;48.112;11.604;2023-02-22T04:36:37;95048.31;;;3.08;100.00
13314;BME280;6725;48.112;11.604;2023-02-22T04:39:02;95051.81;;;3.08;100.00
13314;BME280;6725;48.112;11.604;2023-02-22T04:41:28;95043.28;;;3.06;100.00
13314;BME280;6725;48.112;11.604;2023-02-22T04:43:55;95046.31;;;3.01;100.00
13314;BME280;6725;48.112;11.604;2023-02-22T04:46:21;95043.97;;;3.00;100.00
13314;BME280;6725;48.112;11.604;2023-02-22T04:48:47;95045.84;;;2.96;100.00
13314;BME280;6725;48.112;11.604;2023-02-22T04:51:13;95039.28;;;2.93;100.00
13314;BME280;6725;48.112;11.604;2023-02-22T04:53:38;95035.41;;;2.94;100.00
13314;BME280;6725;48.112;11.604;2023-02-22T04:56:04;95032.28;;;2.92;100.00
13314;BME280;6725;48.112;11.604;2023-02-22T04:58:30;95035.34;;;2.91;100.00
13314;BME280;6725;48.112;11.604;2023-02-22T05:00:56;95038.00;;;2.87;100.00
13314;BME280;6725;48.112;11.604;2023-02-22T05:03:21;95038.34;;;2.82;100.00
13314;BME280;6725;48.112;11.604;2023-02-22T05:05:47;95037.13;;;2.80;100.00
13314;BME280;6725;48.112;11.604;2023-02-22T05:08:12;95033.66;;;2.79;100.00
13314;BME280;6725;48.112;11.604;2023-02-22T05:10:38;95042.91;;;2.78;100.00
13314;BME280;6725;48.112;11.604;2023-02-22T05:13:03;95033.66;;;2.79;100.00
13314;BME280;6725;48.112;11.604;2023-02-22T05:15:30;95028.25;;;2.79;100.00
13314;BME280;6725;48.112;11.604;2023-02-22T05:17:55;95031.31;;;2.78;100.00
13314;BME280;6725;48.112;11.604;2023-02-22T05:20:24;95021.31;;;2.78;100.00
13314;BME280;6725;48.112;11.604;2023-02-22T05:22:53;95019.75;;;2.77;100.00
13314;BME280;6725;48.112;11.604;2023-02-22T05:25:18;95021.72;;;2.80;100.00
13314;BME280;6725;48.112;11.604;2023-02-22T05:27:48;95013.28;;;2.82;100.00
13314;BME280;6725;48.112;11.604;2023-02-22T05:30:14;95013.25;;;2.78;100.00
13314;BME280;6725;48.112;11.604;2023-02-22T05:32:40;95017.47;;;2.79;100.00
13314;BME280;6725;48.112;11.604;2023-02-22T05:35:05;95007.41;;;2.76;100.00
13314;BME280;6725;48.112;11.604;2023-02-22T05:37:32;95017.38;;;2.72;100.00
13314;BME280;6725;48.112;11.604;2023-02-22T05:39:58;95015.03;;;2.71;100.00
13314;BME280;6725;48.112;11.604;2023-02-22T05:42:23;95018.09;;;2.69;100.00
13314;BME280;6725;48.112;11.604;2023-02-22T05:44:49;95011.91;;;2.69;100.00
13314;BME280;6725;48.112;11.604;2023-02-22T05:47:14;95008.81;;;2.67;100.00
13314;BME280;6725;48.112;11.604;2023-02-22T05:49:39;95015.00;;;2.67;100.00
13314;BME280;6725;48.112;11.604;2023-02-22T05:52:05;95011.16;;;2.68;100.00
13314;BME280;6725;48.112;11.604;2023-02-22T05:54:30;95011.53;;;2.67;100.00
13314;BME280;6725;48.112;11.604;2023-02-22T05:56:55;95009.22;;;2.69;100.00
13314;BME280;6725;48.112;11.604;2023-02-22T05:59:21;95000.38;;;2.68;100.00
13314;BME280;6725;48.112;11.604;2023-02-22T06:01:46;95003.13;;;2.72;100.00
13314;BME280;6725;48.112;11.604;2023-02-22T06:04:11;94999.69;;;2.75;100.00
13314;BME280;6725;48.112;11.604;2023-02-22T06:06:37;95005.09;;;2.75;100.00
13314;BME280;6725;48.112;11.604;2023-02-22T06:09:02;95003.91;;;2.72;100.00
13314;BME280;6725;48.112;11.604;2023-02-22T06:11:27;95005.78;;;2.68;100.00
13314;BME280;6725;48.112;11.604;2023-02-22T06:13:52;94996.50;;;2.66;100.00
13314;BME280;6725;48.112;11.604;2023-02-22T06:16:19;95005.78;;;2.68;100.00
13314;BME280;6725;48.112;11.604;2023-02-22T06:18:46;95008.94;;;2.74;100.00
13314;BME280;6725;48.112;11.604;2023-02-22T06:21:11;95008.16;;;2.73;100.00
13314;BME280;6725;48.112;11.604;2023-02-22T06:23:36;95011.66;;;2.77;100.00
13314;BME280;6725;48.112;11.604;2023-02-22T06:26:02;95016.88;;;2.89;100.00
13314;BME280;6725;48.112;11.604;2023-02-22T06:28:27;95014.78;;;3.05;100.00
13314;BME280;6725;48.112;11.604;2023-02-22T06:30:52;95030.34;;;3.15;100.00
13314;BME280;6725;48.112;11.604;2023-02-22T06:33:18;95035.06;;;3.25;100.00
13314;BME280;6725;48.112;11.604;2023-02-22T06:35:43;95037.97;;;3.39;100.00
13314;BME280;6725;48.112;11.604;2023-02-22T06:38:09;95044.69;;;3.53;100.00
13314;BME280;6725;48.112;11.604;2023-02-22T06:40:34;95046.22;;;3.83;100.00
13314;BME280;6725;48.112;11.604;2023-02-22T06:43:01;95055.50;;;4.19;100.00
13314;BME280;6725;48.112;11.604;2023-02-22T06:45:26;95067.84;;;5.07;100.00
13314;BME280;6725;48.112;11.604;2023-02-22T06:47:51;95075.22;;;5.78;100.00
13314;BME280;6725;48.112;11.604;2023-02-22T06:50:22;95087.47;;;6.29;100.00
13314;BME280;6725;48.112;11.604;2023-02-22T06:52:47;95098.03;;;6.80;100.00
13314;BME280;6725;48.112;11.604;2023-02-22T06:55:33;95096.50;;;6.86;100.00
13314;BME280;6725;48.112;11.604;2023-02-22T06:57:59;95100.38;;;7.34;100.00
13314;BME280;6725;48.112;11.604;2023-02-22T07:00:26;95103.44;;;7.50;100.00
13314;BME280;6725;48.112;11.604;2023-02-22T07:02:54;95102.63;;;7.88;100.00
13314;BME280;6725;48.112;11.604;2023-02-22T07:05:22;95106.38;;;8.29;100.00
13314;BME280;6725;48.112;11.604;2023-02-22T07:07:49;95098.94;;;8.40;100.00
13314;BME280;6725;48.112;11.604;2023-02-22T07:10:26;95110.06;;;8.70;100.00
13314;BME280;6725;48.112;11.604;2023-02-22T07:12:52;95106.72;;;9.03;100.00
13314;BME280;6725;48.112;11.604;2023-02-22T07:15:20;95107.31;;;9.28;100.00
13314;BME280;6725;48.112;11.604;2023-02-22T07:17:47;95104.78;;;9.51;100.00
13314;BME280;6725;48.112;11.604;2023-02-22T07:20:13;95099.53;;;10.12;100.00
13314;BME280;6725;48.112;11.604;2023-02-22T07:22:38;95103.41;;;10.74;100.00
13314;BME280;6725;48.112;11.604;2023-02-22T07:25:07;95104.75;;;11.16;100.00
13314;BME280;6725;48.112;11.604;2023-02-22T07:27:38;95104.72;;;10.93;100.00
13314;BME280;6725;48.112;11.604;2023-02-22T07:30:24;95099.34;;;11.85;100.00
13314;BME280;6725;48.112;11.604;2023-02-22T07:32:53;95102.47;;;12.26;98.08
13314;BME280;6725;48.112;11.604;2023-02-22T07:35:25;95106.34;;;12.67;95.99
13314;BME280;6725;48.112;11.604;2023-02-22T07:37:52;95100.94;;;12.64;89.76
13314;BME280;6725;48.112;11.604;2023-02-22T07:40:19;95093.38;;;13.23;87.44
13314;BME280;6725;48.112;11.604;2023-02-22T07:45:16;95088.13;;;13.61;80.65
13314;BME280;6725;48.112;11.604;2023-02-22T07:47:41;95088.59;;;14.20;77.21
13314;BME280;6725;48.112;11.604;2023-02-22T07:50:07;95081.13;;;14.61;72.68
13314;BME280;6725;48.112;11.604;2023-02-22T07:52:32;95080.47;;;14.57;72.48
13314;BME280;6725;48.112;11.604;2023-02-22T07:54:57;95081.91;;;14.62;70.46
13314;BME280;6725;48.112;11.604;2023-02-22T07:57:24;95081.41;;;14.79;72.31
13314;BME280;6725;48.112;11.604;2023-02-22T07:59:49;95086.94;;;14.51;71.73
13314;BME280;6725;48.112;11.604;2023-02-22T08:02:16;95081.03;;;14.52;74.02
13314;BME280;6725;48.112;11.604;2023-02-22T08:04:41;95069.88;;;15.22;71.06
13314;BME280;6725;48.112;11.604;2023-02-22T08:07:06;95079.91;;;15.03;70.62
13314;BME280;6725;48.112;11.604;2023-02-22T08:09:32;95082.31;;;15.64;67.46
13314;BME280;6725;48.112;11.604;2023-02-22T08:11:57;95081.97;;;14.87;70.85
13314;BME280;6725;48.112;11.604;2023-02-22T08:14:22;95073.91;;;14.26;74.03
13314;BME280;6725;48.112;11.604;2023-02-22T08:16:48;95072.97;;;14.45;73.11
13314;BME280;6725;48.112;11.604;2023-02-22T08:19:13;95072.56;;;14.59;73.10
13314;BME280;6725;48.112;11.604;2023-02-22T08:21:38;95072.47;;;14.75;74.20
13314;BME280;6725;48.112;11.604;2023-02-22T08:24:04;95067.56;;;14.95;72.38
13314;BME280;6725;48.112;11.604;2023-02-22T08:26:29;95065.38;;;15.40;72.34
13314;BME280;6725;48.112;11.604;2023-02-22T08:28:55;95065.03;;;16.31;66.59
13314;BME280;6725;48.112;11.604;2023-02-22T08:31:21;95061.84;;;17.07;62.57
13314;BME280;6725;48.112;11.604;2023-02-22T08:33:47;95066.19;;;17.56;60.00
13314;BME280;6725;48.112;11.604;2023-02-22T08:36:16;95066.38;;;17.62;57.15
13314;BME280;6725;48.112;11.604;2023-02-22T08:38:42;95057.78;;;17.69;56.95
13314;BME280;6725;48.112;11.604;2023-02-22T08:41:08;95064.31;;;18.11;55.57
13314;BME280;6725;48.112;11.604;2023-02-22T08:43:33;95055.31;;;17.53;56.76
13314;BME280;6725;48.112;11.604;2023-02-22T08:45:58;95046.03;;;17.95;55.93
13314;BME280;6725;48.112;11.604;2023-02-22T08:48:25;95050.41;;;17.57;56.03
13314;BME280;6725;48.112;11.604;2023-02-22T08:50:50;95050.31;;;17.30;56.32
13314;BME280;6725;48.112;11.604;2023-02-22T08:53:16;95055.22;;;16.74;55.33
13314;BME280;6725;48.112;11.604;2023-02-22T08:55:42;95052.78;;;16.76;56.15
13314;BME280;6725;48.112;11.604;2023-02-22T08:58:08;95056.69;;;17.18;55.49
13314;BME280;6725;48.112;11.604;2023-02-22T09:00:35;95052.22;;;17.51;52.95
13314;BME280;6725;48.112;11.604;2023-02-22T09:03:03;95045.25;;;18.13;52.43
13314;BME280;6725;48.112;11.604;2023-02-22T09:05:29;95043.75;;;18.30;51.62
13314;BME280;6725;48.112;11.604;2023-02-22T09:07:55;95043.44;;;18.46;49.35
13314;BME280;6725;48.112;11.604;2023-02-22T09:10:23;95049.78;;;19.06;48.54
13314;BME280;6725;48.112;11.604;2023-02-22T09:12:50;95045.91;;;19.12;46.27
13314;BME280;6725;48.112;11.604;2023-02-22T09:15:16;95038.88;;;18.43;47.44
13314;BME280;6725;48.112;11.604;2023-02-22T09:17:41;95036.19;;;18.75;46.70
13314;BME280;6725;48.112;11.604;2023-02-22T09:20:07;95040.63;;;18.91;46.88
13314;BME280;6725;48.112;11.604;2023-02-22T09:22:33;95037.81;;;19.51;45.61
13314;BME280;6725;48.112;11.604;2023-02-22T09:24:59;95038.31;;;19.40;44.30
13314;BME280;6725;48.112;11.604;2023-02-22T09:27:24;95035.03;;;19.74;43.83
13314;BME280;6725;48.112;11.604;2023-02-22T09:29:53;95038.22;;;20.05;41.54
13314;BME280;6725;48.112;11.604;2023-02-22T09:32:18;95040.09;;;19.76;42.11
13314;BME280;6725;48.112;11.604;2023-02-22T09:34:45;95040.31;;;20.19;41.11
13314;BME280;6725;48.112;11.604;2023-02-22T09:37:11;95040.09;;;19.52;41.02
13314;BME280;6725;48.112;11.604;2023-02-22T09:39:37;95036.66;;;20.13;41.79
13314;BME280;6725;48.112;11.604;2023-02-22T09:42:12;95039.03;;;20.58;41.12
13314;BME280;6725;48.112;11.604;2023-02-22T09:44:50;95040.44;;;20.25;38.62
13314;BME280;6725;48.112;11.604;2023-02-22T09:47:32;95029.56;;;20.50;39.12
13314;BME280;6725;48.112;11.604;2023-02-22T09:50:07;95037.63;;;20.48;37.92
13314;BME280;6725;48.112;11.604;2023-02-22T09:53:01;95029.19;;;19.48;38.76
13314;BME280;6725;48.112;11.604;2023-02-22T09:55:38;95027.91;;;19.59;37.47
13314;BME280;6725;48.112;11.604;2023-02-22T09:58:14;95037.44;;;20.14;36.26
13314;BME280;6725;48.112;11.604;2023-02-22T10:00:41;95028.34;;;20.13;36.86
13314;BME280;6725;48.112;11.604;2023-02-22T10:03:21;95033.28;;;20.33;35.94
13314;BME280;6725;48.112;11.604;2023-02-22T10:05:53;95021.63;;;20.43;35.80
13314;BME280;6725;48.112;11.604;2023-02-22T10:08:22;95016.56;;;20.56;36.07
13314;BME280;6725;48.112;11.604;2023-02-22T10:11:21;95021.78;;;21.21;35.53
13314;BME280;6725;48.112;11.604;2023-02-22T10:22:05;95011.75;;;20.04;38.77
13314;BME280;6725;48.112;11.604;2023-02-22T10:24:55;95010.19;;;20.12;38.78
13314;BME280;6725;48.112;11.604;2023-02-22T10:27:32;95006.03;;;20.60;38.26
13314;BME280;6725;48.112;11.604;2023-02-22T10:30:25;95003.91;;;20.26;38.47
13314;BME280;6725;48.112;11.604;2023-02-22T10:33:07;94999.09;;;20.27;38.41
13314;BME280;6725;48.112;11.604;2023-02-22T10:35:37;94996.38;;;20.56;38.95
13314;BME280;6725;48.112;11.604;2023-02-22T10:38:31;95004.84;;;20.23;39.01
13314;BME280;6725;48.112;11.604;2023-02-22T10:43:36;94995.59;;;20.03;39.54
13314;BME280;6725;48.112;11.604;2023-02-22T10:46:04;94998.13;;;20.15;39.86
13314;BME280;6725;48.112;11.604;2023-02-22T10:48:35;94996.06;;;19.78;40.09
13314;BME280;6725;48.112;11.604;2023-02-22T10:51:04;94998.84;;;20.01;39.30
13314;BME280;6725;48.112;11.604;2023-02-22T10:53:33;94991.66;;;20.47;40.27
13314;BME280;6725;48.112;11.604;2023-02-22T10:56:18;94992.59;;;20.15;40.15
13314;BME280;6725;48.112;11.604;2023-02-22T11:03:57;94983.81;;;20.17;39.72
13314;BME280;6725;48.112;11.604;2023-02-22T11:06:23;94974.41;;;20.14;39.02
13314;BME280;6725;48.112;11.604;2023-02-22T11:08:48;94987.03;;;19.92;39.09
13314;BME280;6725;48.112;11.604;2023-02-22T11:11:25;94970.53;;;19.97;39.31
13314;BME280;6725;48.112;11.604;2023-02-22T11:13:55;94973.19;;;19.92;39.34
13314;BME280;6725;48.112;11.604;2023-02-22T11:19:31;94964.56;;;19.10;40.67
13314;BME280;6725;48.112;11.604;2023-02-22T11:22:12;94957.00;;;18.87;41.50
13314;BME280;6725;48.112;11.604;2023-02-22T11:24:54;94954.56;;;18.71;41.30
13314;BME280;6725;48.112;11.604;2023-02-22T11:27:42;94944.06;;;18.24;42.01
13314;BME280;6725;48.112;11.604;2023-02-22T11:30:29;94944.56;;;17.60;42.73
13314;BME280;6725;48.112;11.604;2023-02-22T11:33:16;94941.47;;;17.76;44.53
13314;BME280;6725;48.112;11.604;2023-02-22T11:38:28;94930.38;;;17.22;48.15
13314;BME280;6725;48.112;11.604;2023-02-22T11:43:30;94919.78;;;16.72;51.77
13314;BME280;6725;48.112;11.604;2023-02-22T11:48:26;94921.88;;;16.59;53.46
13314;BME280;6725;48.112;11.604;2023-02-22T11:53:59;94915.81;;;16.73;54.46
13314;BME280;6725;48.112;11.604;2023-02-22T11:56:37;94911.81;;;16.74;54.40
13314;BME280;6725;48.112;11.604;2023-02-22T12:01:54;94902.75;;;16.64;55.96
13314;BME280;6725;48.112;11.604;2023-02-22T12:04:54;94908.66;;;16.84;55.99
13314;BME280;6725;48.112;11.604;2023-02-22T12:10:19;94894.41;;;16.86;56.23
13314;BME280;6725;48.112;11.604;2023-02-22T12:12:56;94897.22;;;17.04;57.49
13314;BME280;6725;48.112;11.604;2023-02-22T12:15:39;94903.31;;;16.90;58.56
13314;BME280;6725;48.112;11.604;2023-02-22T12:21:06;94890.09;;;16.85;59.39
13314;BME280;6725;48.112;11.604;2023-02-22T12:23:47;94890.09;;;16.85;60.80
13314;BME280;6725;48.112;11.604;2023-02-22T12:26:19;94883.91;;;16.63;60.92
13314;BME280;6725;48.112;11.604;2023-02-22T12:28:54;94888.16;;;16.55;60.30
13314;BME280;6725;48.112;11.604;2023-02-22T12:31:58;94885.84;;;16.53;61.14
13314;BME280;6725;48.112;11.604;2023-02-22T12:34:36;94876.22;;;16.58;62.19
13314;BME280;6725;48.112;11.604;2023-02-22T12:37:27;94871.69;;;16.73;62.14
13314;BME280;6725;48.112;11.604;2023-02-22T12:45:19;94878.44;;;16.41;63.78
13314;BME280;6725;48.112;11.604;2023-02-22T12:47:53;94878.34;;;16.23;63.89
13314;BME280;6725;48.112;11.604;2023-02-22T12:50:25;94863.31;;;16.15;65.60
13314;BME280;6725;48.112;11.604;2023-02-22T12:52:58;94858.09;;;16.17;64.76
13314;BME280;6725;48.112;11.604;2023-02-22T12:55:36;94874.16;;;16.09;63.83
13314;BME280;6725;48.112;11.604;2023-02-22T12:58:16;94865.81;;;16.00;64.21
13314;BME280;6725;48.112;11.604;2023-02-22T13:00:50;94860.41;;;16.18;65.24
13314;BME280;6725;48.112;11.604;2023-02-22T13:03:40;94862.50;;;16.05;64.52
13314;BME280;6725;48.112;11.604;2023-02-22T13:09:20;94847.84;;;16.17;66.64
13314;BME280;6725;48.112;11.604;2023-02-22T13:14:48;94848.22;;;16.59;66.47
13314;BME280;6725;48.112;11.604;2023-02-22T13:20:07;94846.25;;;16.69;65.33
13314;BME280;6725;48.112;11.604;2023-02-22T13:25:52;94845.28;;;16.63;66.00
13314;BME280;6725;48.112;11.604;2023-02-22T13:28:43;94837.00;;;16.54;64.61
13314;BME280;6725;48.112;11.604;2023-02-22T13:31:26;94832.16;;;16.76;66.46
13314;BME280;6725;48.112;11.604;2023-02-22T13:36:36;94829.44;;;17.03;65.70
13314;BME280;6725;48.112;11.604;2023-02-22T13:41:46;94827.28;;;16.89;64.55
13314;BME280;6725;48.112;11.604;2023-02-22T13:49:56;94827.88;;;16.84;64.25
13314;BME280;6725;48.112;11.604;2023-02-22T13:52:28;94821.75;;;16.71;65.77
13314;BME280;6725;48.112;11.604;2023-02-22T13:54:58;94818.38;;;16.76;63.88
13314;BME280;6725;48.112;11.604;2023-02-22T13:57:25;94819.28;;;16.64;62.31
13314;BME280;6725;48.112;11.604;2023-02-22T14:02:55;94814.72;;;16.79;62.04
13314;BME280;6725;48.112;11.604;2023-02-22T14:05:34;94814.13;;;17.02;61.35
13314;BME280;6725;48.112;11.604;2023-02-22T14:08:00;94814.56;;;17.00;61.07
13314;BME280;6725;48.112;11.604;2023-02-22T14:11:05;94819.63;;;17.02;60.59
13314;BME280;6725;48.112;11.604;2023-02-22T14:14:10;94817.13;;;16.77;61.29
13314;BME280;6725;48.112;11.604;2023-02-22T14:16:35;94819.97;;;16.46;61.55
13314;BME280;6725;48.112;11.604;2023-02-22T14:19:13;94813.75;;;16.64;61.93
13314;BME280;6725;48.112;11.604;2023-02-22T14:22:00;94812.53;;;16.74;61.16
13314;BME280;6725;48.112;11.604;2023-02-22T14:24:27;94819.22;;;16.55;60.80
13314;BME280;6725;48.112;11.604;2023-02-22T14:27:00;94819.06;;;16.49;60.79
13314;BME280;6725;48.112;11.604;2023-02-22T14:29:27;94813.34;;;16.34;61.56
13314;BME280;6725;48.112;11.604;2023-02-22T14:32:08;94809.63;;;16.28;61.41
13314;BME280;6725;48.112;11.604;2023-02-22T14:34:40;94812.72;;;16.30;63.52
13314;BME280;6725;48.112;11.604;2023-02-22T14:39:59;94816.31;;;16.18;69.34
13314;BME280;6725;48.112;11.604;2023-02-22T14:42:38;94810.44;;;16.07;70.93
13314;BME280;6725;48.112;11.604;2023-02-22T14:47:49;94814.34;;;15.88;69.50
13314;BME280;6725;48.112;11.604;2023-02-22T14:50:26;94812.44;;;15.76;71.18
13314;BME280;6725;48.112;11.604;2023-02-22T14:55:48;94815.25;;;15.85;71.70
13314;BME280;6725;48.112;11.604;2023-02-22T14:59:01;94817.06;;;15.79;71.82
13314;BME280;6725;48.112;11.604;2023-02-22T15:01:28;94814.25;;;15.70;73.04
13314;BME280;6725;48.112;11.604;2023-02-22T15:03:55;94814.38;;;15.67;73.22
13314;BME280;6725;48.112;11.604;2023-02-22T15:06:26;94817.44;;;15.69;72.39
13314;BME280;6725;48.112;11.604;2023-02-22T15:11:30;94824.50;;;15.48;73.11
13314;BME280;6725;48.112;11.604;2023-02-22T15:13:57;94824.25;;;15.55;73.76
13314;BME280;6725;48.112;11.604;2023-02-22T15:16:25;94821.44;;;15.46;74.02
13314;BME280;6725;48.112;11.604;2023-02-22T15:18:54;94823.34;;;15.58;73.95
13314;BME280;6725;48.112;11.604;2023-02-22T15:21:22;94824.56;;;15.57;74.66